map of LKN home
LKN - Airport
Location
City:  Leknes, Nordland, Norway
ICAO:ENLK
IATA:LKN

Details
Type:Airport (Aerodrome, Airfield)
Latitude:6809'09"N (68.152500)
Longitude:1336'34"E (13.609444)
Elevation:78 ft (24 m)
Variation:5.89E (WMM2015v2 magnetic declination)
0.27 annual change
Runways:1
Longest:2881 × 98 ft (878 × 30 m)

Time
Time Zone:UTC+1 (DST+2)
Local Time:

Weather
METAR:ENLK 041350Z 11010KT 9999 VCSH FEW025 BKN050 M03/M10 Q1012

Related Locations
Nearby:
Farthest:NZTB: 11650 mi / 18750 km
Terra Nova Bay [Mario Zucchelli Station], AQ

Find:

   beyond  
but within

Other Information
Maps:
NOTAMs:
Links:
Sources:

  
  • flag of Norway
  

Sectional Chart

Flight Planning
at skyvector.com

Satellite Image

Google Maps Satellite view

 

Copyright © 2004-2019 Karl L. Swartz. All rights reserved.
The Great Circle Mapper name and logo are trademarks of the Great Circle Mapper.
All other trademarks mentioned herein belong to their respective owners.
Please see credits for attibutions and further copyright information.

  Follow gcmap on Facebook Follow gcmap on Twitter GCmap on LinkedIn

hCard Microformat

Geo Microformat